createdAt,value
2018-02-08T00:01:28.637Z,96.4
2018-02-08T00:11:27.905Z,89.2
2018-02-08T00:21:26.993Z,109.0
2018-02-08T00:31:26.573Z,99.9
2018-02-08T00:41:29.035Z,100.3
2018-02-08T00:51:26.907Z,92.2
2018-02-08T01:01:26.700Z,88.9
2018-02-08T01:11:26.767Z,89.9
2018-02-08T01:21:27.211Z,83.6
2018-02-08T01:31:27.538Z,84.5
2018-02-08T01:41:27.533Z,93.3
2018-02-08T01:51:26.971Z,90.9
2018-02-08T02:01:27.689Z,94.3
2018-02-08T02:11:28.288Z,91.1
2018-02-08T02:21:28.092Z,91.4
2018-02-08T02:31:27.042Z,97.5
2018-02-08T02:41:26.667Z,99.5
2018-02-08T02:51:27.685Z,96.4
2018-02-08T03:01:26.737Z,102.0
2018-02-08T03:11:26.324Z,110.9
2018-02-08T03:21:27.312Z,120.8
2018-02-08T03:31:27.927Z,110.6
2018-02-08T03:41:26.364Z,117.7
2018-02-08T03:51:27.576Z,111.7
2018-02-08T04:01:27.152Z,117.9
2018-02-08T04:11:26.983Z,119.1
2018-02-08T04:21:26.738Z,106.9
2018-02-08T04:31:26.519Z,111.8
2018-02-08T04:41:27.741Z,104.5
2018-02-08T04:51:42.789Z,122.6
2018-02-08T05:01:26.810Z,119.8
2018-02-08T05:11:27.003Z,140.1
2018-02-08T05:21:26.664Z,132.4
2018-02-08T05:31:27.249Z,136.5
2018-02-08T05:41:26.836Z,116.7
2018-02-08T05:51:26.814Z,118.9
2018-02-08T06:01:26.600Z,122.5
2018-02-08T06:11:27.659Z,132.0
2018-02-08T06:21:26.350Z,125.7
2018-02-08T06:31:28.135Z,136.7
2018-02-08T06:41:27.130Z,126.2
2018-02-08T06:51:26.563Z,118.7
2018-02-08T07:01:27.111Z,117.5
2018-02-08T07:11:26.947Z,118.3
2018-02-08T07:21:27.809Z,132.6
2018-02-08T07:31:26.544Z,113.1
2018-02-08T07:41:27.967Z,134.4
2018-02-08T07:51:28.731Z,124.7
2018-02-08T08:01:26.417Z,120.3
2018-02-08T08:11:27.449Z,111.4
2018-02-08T08:21:26.790Z,124.3
2018-02-08T08:31:26.340Z,119.8
2018-02-08T08:41:27.071Z,125.4
2018-02-08T08:51:26.607Z,107.8
2018-02-08T09:01:27.188Z,101.4
2018-02-08T09:11:26.732Z,104.9
2018-02-08T09:21:28.133Z,129.1
2018-02-08T09:31:27.485Z,118.7
2018-02-08T09:41:27.430Z,129.5
2018-02-08T09:51:27.198Z,138.5
2018-02-08T10:01:27.264Z,116.2
2018-02-08T10:11:26.803Z,104.5
2018-02-08T10:21:27.388Z,94.3
2018-02-08T10:31:27.187Z,112.4
2018-02-08T10:41:26.681Z,108.2
2018-02-08T10:51:28.658Z,110.1
2018-02-08T11:01:27.374Z,105.5
2018-02-08T11:11:26.944Z,95.5
2018-02-08T11:21:26.864Z,90.9
2018-02-08T11:31:27.127Z,107.3
2018-02-08T11:41:27.833Z,92.6
2018-02-08T11:51:26.657Z,99.3
2018-02-08T12:01:26.415Z,94.3
2018-02-08T12:11:27.644Z,87.9
2018-02-08T12:21:27.514Z,89.7
2018-02-08T12:31:26.996Z,82.1
2018-02-08T12:41:26.423Z,88.7
2018-02-08T12:51:27.009Z,92.2
2018-02-08T13:01:27.039Z,95.1
2018-02-08T13:11:27.154Z,88.6
2018-02-08T13:21:27.706Z,80.9
2018-02-08T13:31:26.895Z,98.9
2018-02-08T13:41:26.685Z,91.5
2018-02-08T13:51:26.830Z,77.6
2018-02-08T14:01:26.682Z,100.9
2018-02-08T14:11:27.144Z,90.8
2018-02-08T14:21:27.833Z,106.1
2018-02-08T14:31:26.351Z,68.6
2018-02-08T14:41:27.487Z,72.8
2018-02-08T14:51:27.675Z,89.0
2018-02-08T15:01:27.196Z,94.1
2018-02-08T15:11:26.723Z,93.8
2018-02-08T15:21:28.491Z,112.0
2018-02-08T15:31:28.166Z,94.2
2018-02-08T15:41:26.981Z,96.0
2018-02-08T15:51:26.747Z,104.2
2018-02-08T16:01:26.905Z,109.2
2018-02-08T16:11:27.682Z,111.1
2018-02-08T16:21:26.401Z,105.0
2018-02-08T16:31:28.317Z,122.8
2018-02-08T16:41:26.885Z,131.5
2018-02-08T16:51:26.392Z,112.7
2018-02-08T17:01:26.875Z,127.8
2018-02-08T17:11:27.796Z,131.9
2018-02-08T17:21:26.516Z,134.9
2018-02-08T17:31:27.473Z,137.9
2018-02-08T17:41:26.971Z,143.4
2018-02-08T17:51:26.541Z,123.4
2018-02-08T18:01:27.274Z,147.6
2018-02-08T18:11:26.774Z,147.6
2018-02-08T18:21:26.909Z,139.6
2018-02-08T18:31:27.112Z,136.9
2018-02-08T18:41:26.739Z,136.5
2018-02-08T18:51:26.288Z,130.7
2018-02-08T19:01:26.910Z,149.1
2018-02-08T19:11:26.641Z,144.5
2018-02-08T19:21:27.422Z,174.3
2018-02-08T19:31:27.459Z,149.1
2018-02-08T19:41:27.052Z,153.4
2018-02-08T19:51:26.711Z,159.8
2018-02-08T20:01:27.313Z,170.6
2018-02-08T20:11:27.465Z,159.4
2018-02-08T20:21:28.991Z,143.5
2018-02-08T20:31:26.474Z,151.4
2018-02-08T20:41:27.090Z,160.1
2018-02-08T20:51:27.598Z,130.0
2018-02-08T21:01:27.179Z,158.5
2018-02-08T21:11:26.692Z,153.8
2018-02-08T21:21:26.598Z,158.1
2018-02-08T21:31:27.092Z,171.0
2018-02-08T21:41:26.872Z,170.2
2018-02-08T21:51:27.218Z,174.8
2018-02-08T22:01:27.028Z,167.8
2018-02-08T22:11:28.017Z,171.9
2018-02-08T22:21:26.762Z,153.6
2018-02-08T22:31:26.642Z,142.1
2018-02-08T22:41:27.990Z,160.2
2018-02-08T22:51:26.397Z,163.4
2018-02-08T23:01:26.965Z,162.3
2018-02-08T23:11:27.229Z,184.0
2018-02-08T23:21:28.385Z,160.7
2018-02-08T23:31:26.896Z,164.1
2018-02-08T23:41:26.446Z,163.4
2018-02-08T23:51:27.465Z,179.9
